Airfield :
LOGIN :

Register | Disclaimer

   EN    FR    IT 

 










Legend :    VFR   Marginal VFR   IFR   Intensive IFR   Very Intensive IFR
Visi :
Ceiling :
>= 8 km
>= 3000ft
5 to 8 km
1000 to 3000 ft
1500m to 5 km
500 to 1000 ft
800 to 1500m
200 to 500 ft
< 800m
< 200 ft
Symbols :   Thunderstorms  Fog  Heavy snow  Heavy precipitations  Wind > 20 kt
SIGMETs :     Misc.  Thunderstorms  Icing  Turbulence  Mountain Waves  Volcanic Ashes






- Airport Elevation : 302 ft
- IATA code : MAH


LEMH - Menorca

CURRENT METAR :
  • 171130Z 02019KT 350V050 9999 OVC045 15/06 Q1016

EXPIRED METARs :
  • 171100Z 01016KT 340V040 9999 OVC045 16/06 Q1016
  • 171030Z 36016KT 340V040 9999 OVC045 15/06 Q1016
  • 171000Z 02015KT 350V050 9999 OVC040 15/07 Q1016
  • 170930Z 02017KT 9999 FEW030 OVC040 14/06 Q1016
  • 170900Z 02017KT 340V040 9999 FEW028 OVC040 14/07 Q1016
  • 170830Z 01014KT 9999 OVC040 14/07 Q1016
  • 170800Z 01014KT 9999 OVC040 14/07 Q1015
  • 170730Z 01017KT 9999 FEW027 OVC040 14/06 Q1015

TAF TAF LEMH
Valid from the 17 at 09:00 until the 18 at 09:00 UTC


170800Z 1709/1809 02012KT 9999 BKN030 TX18/1712Z TN10/1806Z
TEMPO 1709/1712 02018G30KT
TEMPO 1712/1714 02016G26KT
BECMG 1716/1718 36005KT
TEMPO 1801/1809 4000 RA SHRA FEW025TCU



MET'MAP, your aeronautical weather chart ! - Copyright ORBIFLY December 2007 - Disclaimer

ORBIFLY MET'MAP TEAM :

Programming & Development : Alexandra Zaïnal
Original concept : Baudouin d'Aumeries
Technical & hardware support : Manuel Goepfert
Assistance : Marc-Olivier Méhu




SOURCES & CREDITS :

   NOAA